Divide, MT (59727)

05:15 MST le 04 décembre 2016 (GMT -0700)
West of Melrose MT | | Change Station
Avis météorologiques actifs: Winter Storm Watch

Alt. 5190 ft 45.63 °N, 112.70 °W | Updated 1 second ago

Overcast
Couvert
24.1 ° F
Paraît 24 ° F
N
0.0
Vent Variable Vent de SSO
Gusts 0.0 mph

Aujourd'hui
Haut(e) -- | Bas -- ° F
--% Risque de précip.
Hier
Haut(e) -- | Bas -- ° F
Precip. -- pouce
Pression 29.94 pouce
Visibilité 10.0 Miles terrestres
Nuages Nuageux 7000 ft
Couvert 8500 ft
Refroidissement éolien 24 ° F
Point de rosée 12 ° F
Humidité 60%
Précipitations 0.00 pouce
Profondeur de la couche neigeuse Non disponible.
7:55 AM 4:47 PM
Lune montante, 22% visible
METAR KBTM 041153Z AUTO VRB03KT 10SM BKN070 OVC085 M01/M09 A2986 RMK AO2 SLP138 T10111094 11011 21033 58021
Pression 29.94 pouce
Visibilité 10.0 Miles terrestres
Nuages Nuageux 7000 ft
Couvert 8500 ft
Refroidissement éolien 24 ° F
Point de rosée 12 ° F
Humidité 60%
Précipitations 0.00 pouce
Profondeur de la couche neigeuse Non disponible.
7:55 AM 4:47 PM
Lune montante, 22% visible
METAR KBTM 041153Z AUTO VRB03KT 10SM BKN070 OVC085 M01/M09 A2986 RMK AO2 SLP138 T10111094 11011 21033 58021

10-Day Weather Forecast

Almanac

Astronomie

Dec. 04, 2016 Lever Coucher
Temps réel
Crépuscule civil
Crépuscule nautique
Crépuscule astronomique
Lune
Durée de lumière visible
Longueur du jour
Tomorrow will be .
, % of the Moon is Illuminated

Extrêmes aujourd'hui

State Highs State Lows

Community

WunderPhotos

Upload Photos

1,955,591 Photos téléchargées !

WunderBlog® & News

Nearby

Qualité de l'air

  Qualité de l'air Indice de la qualité de l'air Polluant
Not available.

Épaisseur de neige

Station Depth Altitude

Activité sismique

Ville Distance Mag. Time & Date
Minimum magnitude displayed is 2.5.

Températures des eaux côtières

Lieu Température

Stations

Stations météo à proximité

Emplacement de la station Température Refroidissement éolien Point de rosée Humidité Vent Precip. Alt. Mise à jour Type
                   

Watches & Warnings

Winter Storm Watch
Issued: 20:42 MST Dec. 3, 2016 – National Weather Service

... Winter Storm Watch remains in effect from Sunday morning
through Monday morning...

The National Weather Service in Missoula has continued the Winter
Storm Watch... which is in effect from Sunday afternoon through
Monday morning.

* Impacts/timing: light snow will begin Sunday morning but the
most intense snow is expected during the evening. The
combination of accumulating snow, wind, and quickly dropping
temperatures has the potential to create hazardous travel
conditions Sunday evening through Monday morning. Interstate
90 from Frenchtown to Bearmouth could become quite hazardous
due to snow and blowing snow reducing visibility Sunday
evening.

* Snow accumulations Sunday through Monday morning: 2 to 6
inches.

* Winds: gusty west northwest winds 0f 20 to 30 miles per hour
with the cold front Sunday evening.